Time;durP1;ratioP1;P1;durP2;ratioP2;P2;SDS_P1;SDS_P2;PMS_P1;PMS_P2;Temp;Humidity;BMP_temperature;BMP_pressure;BME280_temperature;BME280_humidity;BME280_pressure;Samples;Min_cycle;Max_cycle;Signal;HPM_P1;HPM_P2
2024/02/01 00:02:34;;;;;;;4.20;3.80;;;;;;;;;;4997497;28;20467;-83
2024/02/01 00:05:11;;;;;;;6.83;4.43;;;;;;;;;;5013417;28;20474;-84
2024/02/01 00:07:47;;;;;;;8.13;4.20;;;;;;;;;;5011648;28;20479;-84
2024/02/01 00:10:16;;;;;;;5.00;4.17;;;;;;;;;;4986560;28;20449;-84
2024/02/01 00:12:47;;;;;;;6.00;3.03;;;;;;;;;;4995627;28;20463;-85
2024/02/01 00:15:16;;;;;;;5.07;4.33;;;;;;;;;;5010977;28;20532;-85
2024/02/01 00:17:44;;;;;;;5.30;3.60;;;;;;;;;;4985996;28;20465;-83
2024/02/01 00:20:16;;;;;;;11.13;4.50;;;;;;;;;;5002945;28;21073;-83
2024/02/01 00:22:43;;;;;;;8.60;4.33;;;;;;;;;;5026500;28;20501;-85
2024/02/01 00:25:16;;;;;;;4.37;3.97;;;;;;;;;;5027829;28;20506;-84
2024/02/01 00:27:50;;;;;;;4.80;4.13;;;;;;;;;;5022671;28;20559;-86
2024/02/01 00:30:23;;;;;;;5.47;3.73;;;;;;;;;;5007988;28;20455;-84
2024/02/01 00:32:53;;;;;;;5.53;3.77;;;;;;;;;;4985236;28;20480;-83
2024/02/01 00:35:25;;;;;;;5.80;4.27;;;;;;;;;;4981358;28;20494;-84
2024/02/01 00:37:54;;;;;;;7.30;3.90;;;;;;;;;;5004415;28;21111;-84
2024/02/01 00:40:26;;;;;;;4.97;3.87;;;;;;;;;;4984930;28;20450;-84
2024/02/01 00:42:54;;;;;;;4.77;3.40;;;;;;;;;;4987269;28;20469;-86
2024/02/01 00:45:29;;;;;;;5.10;4.60;;;;;;;;;;4979740;28;20510;-83
2024/02/01 00:47:59;;;;;;;6.10;4.43;;;;;;;;;;4983122;28;20516;-84
2024/02/01 00:50:37;;;;;;;6.30;3.40;;;;;;;;;;4991701;28;20453;-85
2024/02/01 00:53:23;;;;;;;4.80;3.40;;;;;;;;;;4981040;28;20430;-85
2024/02/01 00:55:54;;;;;;;8.57;4.50;;;;;;;;;;5008000;28;20458;-86
2024/02/01 00:58:30;;;;;;;5.63;4.10;;;;;;;;;;5008442;28;20479;-83
2024/02/01 01:00:59;;;;;;;7.93;4.60;;;;;;;;;;4988068;28;20469;-84
2024/02/01 01:03:29;;;;;;;4.70;3.70;;;;;;;;;;5006218;28;20474;-82
2024/02/01 01:06:09;;;;;;;6.90;4.63;;;;;;;;;;5005021;28;20483;-83
2024/02/01 01:08:37;;;;;;;6.60;3.90;;;;;;;;;;4976059;28;20486;-84
2024/02/01 01:11:09;;;;;;;6.37;4.70;;;;;;;;;;4975423;28;20793;-82
2024/02/01 01:13:44;;;;;;;7.10;4.23;;;;;;;;;;5002526;28;22275;-85
2024/02/01 01:16:19;;;;;;;5.43;4.43;;;;;;;;;;5004059;28;20486;-86
2024/02/01 01:18:46;;;;;;;7.23;5.20;;;;;;;;;;5004165;28;20499;-85
2024/02/01 01:21:22;;;;;;;5.03;4.37;;;;;;;;;;4986844;28;20441;-85
2024/02/01 01:23:50;;;;;;;8.20;4.23;;;;;;;;;;4987709;28;20501;-83
2024/02/01 01:26:25;;;;;;;4.73;4.20;;;;;;;;;;4988591;28;20534;-83
2024/02/01 01:29:03;;;;;;;8.43;4.60;;;;;;;;;;4968740;28;20520;-83
2024/02/01 01:31:31;;;;;;;5.87;4.53;;;;;;;;;;4978110;28;20542;-84
2024/02/01 01:34:03;;;;;;;5.63;4.73;;;;;;;;;;5002803;28;20456;-85
2024/02/01 01:36:43;;;;;;;10.00;5.40;;;;;;;;;;5029733;28;20519;-84
2024/02/01 01:39:19;;;;;;;6.57;4.80;;;;;;;;;;5015253;28;20493;-85
2024/02/01 01:41:47;;;;;;;6.40;4.53;;;;;;;;;;5018846;28;20465;-86
2024/02/01 01:44:15;;;;;;;7.40;5.00;;;;;;;;;;4978158;28;20491;-83
2024/02/01 01:46:44;;;;;;;7.30;5.17;;;;;;;;;;5002366;28;20653;-85
2024/02/01 01:49:17;;;;;;;7.20;5.33;;;;;;;;;;4982002;28;22151;-85
2024/02/01 01:51:51;;;;;;;5.33;4.20;;;;;;;;;;4999829;28;21072;-86
2024/02/01 01:54:20;;;;;;;8.40;4.43;;;;;;;;;;4999128;28;20533;-83
2024/02/01 01:56:48;;;;;;;6.90;4.20;;;;;;;;;;4982970;28;20521;-84
2024/02/01 01:59:16;;;;;;;10.50;4.97;;;;;;;;;;4977054;28;20477;-84
2024/02/01 02:01:47;;;;;;;5.63;4.53;;;;;;;;;;4999342;28;20473;-84
2024/02/01 02:04:15;;;;;;;6.13;4.60;;;;;;;;;;4999442;28;20470;-84
2024/02/01 02:06:43;;;;;;;6.53;4.83;;;;;;;;;;5001211;28;20486;-85
2024/02/01 02:09:15;;;;;;;6.27;4.33;;;;;;;;;;4981734;28;20523;-83
2024/02/01 02:11:45;;;;;;;5.37;3.97;;;;;;;;;;4976028;28;21253;-85
2024/02/01 02:14:14;;;;;;;8.37;4.50;;;;;;;;;;4999602;28;20478;-82
2024/02/01 02:16:42;;;;;;;6.47;4.47;;;;;;;;;;4999848;28;21634;-84
2024/02/01 02:19:10;;;;;;;6.40;4.73;;;;;;;;;;4974926;28;20481;-83
2024/02/01 02:21:39;;;;;;;7.00;4.60;;;;;;;;;;4958981;28;20470;-83
2024/02/01 02:24:07;;;;;;;4.70;4.17;;;;;;;;;;4971782;28;20489;-85
2024/02/01 02:26:35;;;;;;;6.40;5.40;;;;;;;;;;4998387;28;20482;-85
2024/02/01 02:29:03;;;;;;;7.50;5.40;;;;;;;;;;4971864;28;20482;-86
2024/02/01 02:31:30;;;;;;;5.17;4.67;;;;;;;;;;4972614;28;20463;-84
2024/02/01 02:33:59;;;;;;;6.00;4.13;;;;;;;;;;4999294;28;20476;-85
2024/02/01 02:36:26;;;;;;;4.50;4.00;;;;;;;;;;5000643;28;20463;-86
2024/02/01 02:38:53;;;;;;;4.63;3.90;;;;;;;;;;4998904;28;22379;-85
2024/02/01 02:41:21;;;;;;;7.10;4.73;;;;;;;;;;4980773;28;20457;-85
2024/02/01 02:43:49;;;;;;;4.43;3.83;;;;;;;;;;4999697;28;20484;-86
2024/02/01 02:46:16;;;;;;;4.93;4.43;;;;;;;;;;4981108;28;20481;-84
2024/02/01 02:48:43;;;;;;;5.50;4.20;;;;;;;;;;4982372;28;20968;-86
2024/02/01 02:51:11;;;;;;;4.77;4.27;;;;;;;;;;4975401;28;20469;-86
2024/02/01 02:53:39;;;;;;;4.90;4.23;;;;;;;;;;4984679;28;20472;-84
2024/02/01 02:56:07;;;;;;;5.30;4.80;;;;;;;;;;4987532;28;20467;-85
2024/02/01 02:58:37;;;;;;;5.07;4.43;;;;;;;;;;4986273;28;20521;-84
2024/02/01 03:01:08;;;;;;;8.63;3.87;;;;;;;;;;5005465;28;20464;-82
2024/02/01 03:03:40;;;;;;;5.80;4.83;;;;;;;;;;4998820;28;20482;-84
2024/02/01 03:06:08;;;;;;;5.03;4.27;;;;;;;;;;4979817;28;20494;-83
2024/02/01 03:08:42;;;;;;;6.03;4.27;;;;;;;;;;4997033;28;20567;-84
2024/02/01 03:11:13;;;;;;;6.77;4.70;;;;;;;;;;4970650;28;20584;-83
2024/02/01 03:13:41;;;;;;;5.33;4.60;;;;;;;;;;4999858;28;20521;-83
2024/02/01 03:16:18;;;;;;;5.33;4.53;;;;;;;;;;5005295;28;20450;-84
2024/02/01 03:18:45;;;;;;;4.77;4.13;;;;;;;;;;4991983;28;20458;-84
2024/02/01 03:21:14;;;;;;;7.20;6.00;;;;;;;;;;4994439;28;20467;-87
2024/02/01 03:23:46;;;;;;;5.27;4.53;;;;;;;;;;5005399;28;21368;-85
2024/02/01 03:26:13;;;;;;;4.90;4.40;;;;;;;;;;4991731;28;20478;-84
2024/02/01 03:28:42;;;;;;;8.33;5.90;;;;;;;;;;4985794;28;20475;-83
2024/02/01 03:31:09;;;;;;;5.47;5.00;;;;;;;;;;4984808;28;20438;-83
2024/02/01 03:33:39;;;;;;;4.57;4.17;;;;;;;;;;4979873;28;20455;-83
2024/02/01 03:36:10;;;;;;;4.33;4.03;;;;;;;;;;5004563;28;20571;-83
2024/02/01 03:38:40;;;;;;;4.90;4.40;;;;;;;;;;5003718;28;20466;-84
2024/02/01 03:41:07;;;;;;;5.43;4.93;;;;;;;;;;4976154;28;20574;-85
2024/02/01 03:43:35;;;;;;;4.33;3.93;;;;;;;;;;4983677;28;20601;-86
2024/02/01 03:46:02;;;;;;;4.73;4.10;;;;;;;;;;4984168;28;20497;-84
2024/02/01 03:48:32;;;;;;;5.20;4.27;;;;;;;;;;5001825;28;20486;-85
2024/02/01 03:51:02;;;;;;;5.00;3.90;;;;;;;;;;4982988;28;20446;-86
2024/02/01 03:53:29;;;;;;;4.60;4.20;;;;;;;;;;4999151;28;20478;-83
2024/02/01 03:55:56;;;;;;;5.57;4.13;;;;;;;;;;4982692;28;20587;-85
2024/02/01 03:58:26;;;;;;;4.37;4.07;;;;;;;;;;4976902;28;20474;-85
2024/02/01 04:00:56;;;;;;;5.27;3.47;;;;;;;;;;4983297;28;20609;-85
2024/02/01 04:03:24;;;;;;;3.53;3.13;;;;;;;;;;4978715;28;20458;-85
2024/02/01 04:05:53;;;;;;;4.20;3.80;;;;;;;;;;4986803;28;20469;-83
2024/02/01 04:08:26;;;;;;;3.63;3.30;;;;;;;;;;4994795;28;20484;-83
2024/02/01 04:10:57;;;;;;;3.80;3.30;;;;;;;;;;4984724;28;20465;-86
2024/02/01 04:13:24;;;;;;;3.10;2.90;;;;;;;;;;5005087;28;20458;-85
2024/02/01 04:15:54;;;;;;;3.43;3.13;;;;;;;;;;5009503;28;20517;-84
2024/02/01 04:18:30;;;;;;;3.60;3.30;;;;;;;;;;4975997;28;20567;-85
2024/02/01 04:21:12;;;;;;;3.20;2.90;;;;;;;;;;4983630;28;20504;-86
2024/02/01 04:23:40;;;;;;;3.13;2.93;;;;;;;;;;4998087;28;20508;-85
2024/02/01 04:26:15;;;;;;;4.07;3.57;;;;;;;;;;4976487;28;20494;-82
2024/02/01 04:28:43;;;;;;;3.80;3.40;;;;;;;;;;4984061;28;20482;-86
2024/02/01 04:31:11;;;;;;;3.50;3.20;;;;;;;;;;5000580;28;20454;-83
2024/02/01 04:33:54;;;;;;;3.70;3.40;;;;;;;;;;4977828;28;20451;-83
2024/02/01 04:36:33;;;;;;;3.73;3.40;;;;;;;;;;4983854;28;20465;-83
2024/02/01 04:39:07;;;;;;;3.43;3.23;;;;;;;;;;5000534;28;21144;-84
2024/02/01 04:41:38;;;;;;;5.10;4.17;;;;;;;;;;4974319;28;20457;-84
2024/02/01 04:44:12;;;;;;;4.80;3.40;;;;;;;;;;4976899;28;20568;-86
2024/02/01 04:46:47;;;;;;;3.27;3.07;;;;;;;;;;4989222;28;20941;-86
2024/02/01 04:49:18;;;;;;;4.20;3.77;;;;;;;;;;4987270;28;20767;-86
2024/02/01 04:51:48;;;;;;;4.60;3.90;;;;;;;;;;4972587;28;21243;-83
2024/02/01 04:54:23;;;;;;;3.80;3.50;;;;;;;;;;4978241;28;20459;-84
2024/02/01 04:56:55;;;;;;;3.93;3.50;;;;;;;;;;4983427;28;20450;-84
2024/02/01 04:59:26;;;;;;;3.47;3.27;;;;;;;;;;5010625;28;20500;-83
2024/02/01 05:01:56;;;;;;;4.50;4.10;;;;;;;;;;4991332;28;20507;-86
2024/02/01 05:04:35;;;;;;;;;;;;;;;;;;;;;
2024/02/01 05:07:09;;;;;;;4.30;3.90;;;;;;;;;;5004860;28;20521;-84
2024/02/01 05:09:43;;;;;;;3.90;3.50;;;;;;;;;;4984432;28;20513;-85
2024/02/01 05:12:10;;;;;;;4.70;4.30;;;;;;;;;;4988780;28;20495;-86
2024/02/01 05:14:38;;;;;;;4.40;3.83;;;;;;;;;;5008585;28;20778;-85
2024/02/01 05:17:09;;;;;;;3.87;3.57;;;;;;;;;;4993705;28;20534;-84
2024/02/01 05:19:38;;;;;;;4.47;4.10;;;;;;;;;;4990283;28;20485;-84
2024/02/01 05:22:11;;;;;;;6.50;4.40;;;;;;;;;;4995918;28;20461;-84
2024/02/01 05:24:41;;;;;;;3.70;3.40;;;;;;;;;;5018462;28;20872;-84
2024/02/01 05:27:08;;;;;;;3.77;3.47;;;;;;;;;;4993105;28;20490;-84
2024/02/01 05:29:39;;;;;;;3.90;3.60;;;;;;;;;;4977680;28;20466;-84
2024/02/01 05:32:06;;;;;;;4.17;3.87;;;;;;;;;;4975488;28;20477;-85
2024/02/01 05:34:34;;;;;;;4.43;4.03;;;;;;;;;;4999406;28;20539;-83
2024/02/01 05:37:02;;;;;;;4.40;3.53;;;;;;;;;;4984340;28;20469;-84
2024/02/01 05:39:29;;;;;;;4.23;3.83;;;;;;;;;;4980586;28;20469;-84
2024/02/01 05:42:00;;;;;;;4.93;3.80;;;;;;;;;;4985074;28;20461;-83
2024/02/01 05:44:31;;;;;;;4.47;4.07;;;;;;;;;;4988319;28;20463;-85
2024/02/01 05:47:05;;;;;;;5.17;4.63;;;;;;;;;;4997183;28;20500;-83
2024/02/01 05:49:36;;;;;;;4.40;4.00;;;;;;;;;;4977750;28;20512;-85
2024/02/01 05:52:12;;;;;;;5.10;4.60;;;;;;;;;;4998008;28;20439;-83
2024/02/01 05:54:40;;;;;;;5.47;5.07;;;;;;;;;;5007460;28;20513;-84
2024/02/01 05:57:12;;;;;;;5.30;4.80;;;;;;;;;;5006120;28;20462;-84
2024/02/01 05:59:39;;;;;;;5.80;5.30;;;;;;;;;;4999069;28;20458;-84
2024/02/01 06:02:09;;;;;;;5.77;5.27;;;;;;;;;;4997238;28;20454;-84
2024/02/01 06:04:37;;;;;;;5.33;4.83;;;;;;;;;;5013342;28;20544;-84
2024/02/01 06:07:09;;;;;;;5.83;5.33;;;;;;;;;;5034456;28;20481;-83
2024/02/01 06:09:39;;;;;;;7.23;6.53;;;;;;;;;;5031256;28;20479;-83
2024/02/01 06:12:12;;;;;;;7.23;6.57;;;;;;;;;;5014130;28;20457;-84
2024/02/01 06:14:42;;;;;;;8.00;7.20;;;;;;;;;;5000023;28;20470;-86
2024/02/01 06:17:10;;;;;;;7.83;6.60;;;;;;;;;;5008979;28;20517;-85
2024/02/01 06:19:40;;;;;;;8.77;7.87;;;;;;;;;;5007008;28;20925;-85
2024/02/01 06:22:10;;;;;;;9.53;8.07;;;;;;;;;;5015394;28;20465;-84
2024/02/01 06:24:41;;;;;;;10.30;8.30;;;;;;;;;;4981629;28;20451;-83
2024/02/01 06:27:14;;;;;;;9.70;7.63;;;;;;;;;;4979278;28;20484;-84
2024/02/01 06:29:43;;;;;;;8.60;7.80;;;;;;;;;;4993481;28;20553;-85
2024/02/01 06:32:19;;;;;;;10.57;8.07;;;;;;;;;;4986782;28;20442;-84
2024/02/01 06:35:06;;;;;;;10.60;7.57;;;;;;;;;;4989700;28;20450;-83
2024/02/01 06:37:40;;;;;;;10.70;8.03;;;;;;;;;;4988253;28;21064;-85
2024/02/01 06:40:37;;;;;;;11.50;8.63;;;;;;;;;;4989872;28;20829;-85
2024/02/01 06:43:17;;;;;;;9.63;7.40;;;;;;;;;;5014170;28;20479;-82
2024/02/01 06:45:58;;;;;;;10.30;8.47;;;;;;;;;;5011809;28;20454;-84
2024/02/01 06:48:40;;;;;;;8.93;8.03;;;;;;;;;;5015596;28;20473;-83
2024/02/01 06:51:21;;;;;;;12.63;8.57;;;;;;;;;;5009958;28;20979;-83
2024/02/01 06:53:57;;;;;;;9.47;8.20;;;;;;;;;;4994716;28;20458;-84
2024/02/01 06:56:48;;;;;;;10.07;7.50;;;;;;;;;;4990044;28;20857;-84
2024/02/01 06:59:43;;;;;;;12.07;7.43;;;;;;;;;;4988181;28;20466;-85
2024/02/01 07:02:35;;;;;;;9.57;7.57;;;;;;;;;;4997511;28;20482;-85
2024/02/01 07:05:26;;;;;;;9.33;7.87;;;;;;;;;;5007619;28;20447;-82
2024/02/01 07:09:16;;;;;;;8.57;7.43;;;;;;;;;;4984911;28;20542;-85
2024/02/01 07:16:35;;;;;;;10.30;7.07;;;;;;;;;;5002735;28;20496;-84
2024/02/01 07:19:23;;;;;;;10.27;8.00;;;;;;;;;;4977468;28;20518;-84
2024/02/01 07:22:09;;;;;;;8.90;7.67;;;;;;;;;;4977522;28;20550;-84
2024/02/01 07:58:38;;;;;;;9.20;5.90;;;;;;;;;;5001775;28;20478;-84
2024/02/01 08:01:22;;;;;;;10.57;5.77;;;;;;;;;;4997983;28;21597;-86
2024/02/01 08:04:12;;;;;;;9.70;5.63;;;;;;;;;;4984035;28;20453;-84
2024/02/01 08:09:42;;;;;;;10.07;5.30;;;;;;;;;;4998162;28;20581;-84
2024/02/01 08:12:20;;;;;;;6.33;3.77;;;;;;;;;;4986193;28;20564;-85
2024/02/01 08:14:52;;;;;;;10.10;5.37;;;;;;;;;;4983278;28;20454;-84
2024/02/01 08:17:20;;;;;;;8.43;4.50;;;;;;;;;;4973801;28;20582;-85
2024/02/01 08:19:53;;;;;;;8.00;3.53;;;;;;;;;;4970610;28;20543;-84
2024/02/01 08:22:21;;;;;;;5.63;2.57;;;;;;;;;;4983908;28;20462;-83
2024/02/01 08:24:54;;;;;;;5.17;3.43;;;;;;;;;;5002364;28;20469;-84
2024/02/01 08:27:28;;;;;;;8.70;2.90;;;;;;;;;;4983079;28;20497;-82
2024/02/01 08:29:57;;;;;;;5.43;2.67;;;;;;;;;;4979596;28;20451;-84
2024/02/01 08:32:26;;;;;;;7.00;2.30;;;;;;;;;;4988967;28;20446;-83
2024/02/01 08:34:59;;;;;;;4.83;2.80;;;;;;;;;;4998051;28;21972;-84
2024/02/01 08:37:28;;;;;;;5.43;2.33;;;;;;;;;;4993784;28;20564;-85
2024/02/01 08:39:58;;;;;;;8.03;2.37;;;;;;;;;;4993668;28;20469;-82
2024/02/01 08:42:29;;;;;;;5.33;2.57;;;;;;;;;;4988015;28;20495;-84
2024/02/01 08:45:00;;;;;;;6.47;2.20;;;;;;;;;;4991497;28;20462;-83
2024/02/01 08:47:28;;;;;;;5.73;2.63;;;;;;;;;;4995235;28;20603;-83
2024/02/01 08:50:12;;;;;;;7.50;2.13;;;;;;;;;;5008738;28;20478;-85
2024/02/01 08:52:52;;;;;;;10.73;2.53;;;;;;;;;;4984015;28;21315;-87
2024/02/01 08:55:25;;;;;;;4.33;1.87;;;;;;;;;;4981205;28;20445;-84
2024/02/01 08:57:55;;;;;;;10.93;2.17;;;;;;;;;;4979267;28;20482;-83
2024/02/01 09:00:34;;;;;;;9.53;3.17;;;;;;;;;;4990937;28;20502;-84
2024/02/01 09:03:16;;;;;;;11.87;2.17;;;;;;;;;;5005349;28;20528;-83
2024/02/01 09:05:52;;;;;;;7.57;2.73;;;;;;;;;;4989182;28;20450;-83
2024/02/01 09:08:35;;;;;;;12.13;2.60;;;;;;;;;;4988865;28;20582;-83
2024/02/01 09:11:11;;;;;;;10.00;3.00;;;;;;;;;;5000750;28;20559;-82
2024/02/01 09:13:45;;;;;;;13.30;4.53;;;;;;;;;;4973785;28;20457;-84
2024/02/01 09:16:24;;;;;;;9.20;2.10;;;;;;;;;;4980193;28;21336;-84
2024/02/01 09:18:58;;;;;;;9.83;2.53;;;;;;;;;;5000506;28;20512;-84
2024/02/01 09:21:29;;;;;;;11.10;4.07;;;;;;;;;;4971925;28;20466;-84
2024/02/01 09:23:59;;;;;;;8.63;3.40;;;;;;;;;;4991985;28;20531;-84
2024/02/01 09:26:27;;;;;;;10.93;4.30;;;;;;;;;;4997841;28;20446;-83
2024/02/01 09:28:57;;;;;;;11.87;2.80;;;;;;;;;;4975898;28;20489;-84
2024/02/01 09:31:27;;;;;;;17.40;5.30;;;;;;;;;;4997905;28;20856;-83
2024/02/01 09:33:59;;;;;;;15.00;3.53;;;;;;;;;;4990055;28;20470;-84
2024/02/01 09:36:43;;;;;;;17.50;4.13;;;;;;;;;;4997687;28;20471;-83
2024/02/01 09:39:16;;;;;;;13.33;4.50;;;;;;;;;;4970248;28;20485;-83
2024/02/01 09:41:44;;;;;;;16.17;5.50;;;;;;;;;;4986751;28;20515;-83
2024/02/01 09:44:11;;;;;;;9.60;4.40;;;;;;;;;;4969780;28;20534;-85
2024/02/01 09:46:44;;;;;;;7.00;2.90;;;;;;;;;;4982938;28;20491;-82
2024/02/01 09:49:12;;;;;;;15.67;3.20;;;;;;;;;;5004685;28;20599;-83
2024/02/01 09:51:46;;;;;;;16.97;7.00;;;;;;;;;;4978843;28;20481;-84
2024/02/01 09:54:14;;;;;;;17.20;4.90;;;;;;;;;;5002364;28;20466;-84
2024/02/01 09:56:43;;;;;;;10.50;5.40;;;;;;;;;;5000167;28;20453;-85
2024/02/01 09:59:14;;;;;;;13.73;2.87;;;;;;;;;;5001232;28;20489;-84
2024/02/01 10:01:49;;;;;;;16.17;5.70;;;;;;;;;;5002629;28;20516;-83
2024/02/01 10:04:16;;;;;;;10.90;3.20;;;;;;;;;;5010048;28;20494;-83
2024/02/01 10:06:50;;;;;;;9.77;3.70;;;;;;;;;;4992388;28;20449;-83
2024/02/01 10:09:20;;;;;;;11.37;3.87;;;;;;;;;;4997434;28;20492;-84
2024/02/01 10:11:51;;;;;;;10.70;3.10;;;;;;;;;;5013403;28;20461;-84
2024/02/01 10:14:37;;;;;;;8.70;3.47;;;;;;;;;;4990614;28;20458;-84
2024/02/01 10:17:05;;;;;;;10.87;3.40;;;;;;;;;;4991590;28;20841;-85
2024/02/01 10:19:49;;;;;;;8.63;2.70;;;;;;;;;;5011527;28;20458;-85
2024/02/01 10:22:19;;;;;;;8.60;3.33;;;;;;;;;;4980808;28;20468;-83
2024/02/01 10:24:57;;;;;;;8.43;2.40;;;;;;;;;;4978663;28;20481;-84
2024/02/01 10:27:28;;;;;;;9.57;3.00;;;;;;;;;;4995883;28;21023;-84
2024/02/01 10:29:58;;;;;;;9.43;3.20;;;;;;;;;;4974593;28;20455;-85
2024/02/01 10:32:31;;;;;;;8.83;2.97;;;;;;;;;;4996184;28;20473;-84
2024/02/01 10:34:59;;;;;;;10.13;2.77;;;;;;;;;;4989485;28;20513;-82
2024/02/01 10:37:28;;;;;;;11.97;2.30;;;;;;;;;;4992633;28;20513;-82
2024/02/01 10:40:12;;;;;;;10.27;2.87;;;;;;;;;;4987076;28;20442;-84
2024/02/01 10:42:45;;;;;;;6.53;2.77;;;;;;;;;;4981741;28;20463;-84
2024/02/01 10:45:16;;;;;;;6.60;2.57;;;;;;;;;;4992038;28;20529;-84
2024/02/01 10:47:46;;;;;;;12.10;2.70;;;;;;;;;;5005491;28;22006;-85
2024/02/01 10:50:18;;;;;;;5.80;2.63;;;;;;;;;;4998327;28;20754;-84
2024/02/01 10:52:50;;;;;;;10.27;2.03;;;;;;;;;;4977318;28;20431;-84
2024/02/01 10:55:22;;;;;;;8.10;2.17;;;;;;;;;;4987517;28;20549;-83
2024/02/01 10:57:52;;;;;;;12.37;2.53;;;;;;;;;;5006450;28;20482;-85
2024/02/01 11:00:21;;;;;;;6.23;2.67;;;;;;;;;;4988859;28;20486;-84
2024/02/01 11:02:55;;;;;;;4.83;1.90;;;;;;;;;;4985855;28;20553;-84
2024/02/01 11:05:30;;;;;;;7.03;2.30;;;;;;;;;;5004088;28;20465;-85
2024/02/01 11:08:02;;;;;;;5.30;2.20;;;;;;;;;;4996319;28;20514;-84
2024/02/01 11:10:34;;;;;;;10.77;2.63;;;;;;;;;;4980742;28;20470;-85
2024/02/01 11:13:03;;;;;;;11.77;2.53;;;;;;;;;;5001473;28;20465;-81
2024/02/01 11:15:38;;;;;;;8.93;2.60;;;;;;;;;;5011719;28;20462;-82
2024/02/01 11:18:11;;;;;;;12.37;3.07;;;;;;;;;;4995875;28;20465;-85
2024/02/01 11:20:39;;;;;;;14.23;3.53;;;;;;;;;;4981736;28;20774;-83
2024/02/01 11:23:11;;;;;;;8.03;3.00;;;;;;;;;;5011011;28;20451;-84
2024/02/01 11:25:39;;;;;;;7.20;2.40;;;;;;;;;;5012094;28;20465;-83
2024/02/01 11:28:11;;;;;;;8.20;2.33;;;;;;;;;;5008548;28;20487;-84
2024/02/01 11:30:39;;;;;;;8.80;2.17;;;;;;;;;;4983796;28;20442;-84
2024/02/01 11:33:17;;;;;;;19.03;2.50;;;;;;;;;;5010318;28;20471;-84
2024/02/01 11:35:45;;;;;;;14.50;2.90;;;;;;;;;;4985280;28;20464;-83
2024/02/01 11:38:18;;;;;;;12.70;3.23;;;;;;;;;;4989897;28;20494;-83
2024/02/01 11:40:48;;;;;;;10.10;2.90;;;;;;;;;;5007018;28;20438;-84
2024/02/01 11:43:15;;;;;;;8.07;2.10;;;;;;;;;;4982286;28;20474;-82
2024/02/01 11:45:53;;;;;;;6.90;2.20;;;;;;;;;;4992318;28;20434;-83
2024/02/01 11:48:22;;;;;;;11.63;3.27;;;;;;;;;;5028696;28;20538;-84
2024/02/01 11:50:56;;;;;;;16.47;3.90;;;;;;;;;;5008700;28;20447;-82
2024/02/01 11:53:28;;;;;;;8.70;2.47;;;;;;;;;;4993946;28;20466;-82
2024/02/01 11:55:58;;;;;;;8.73;2.40;;;;;;;;;;4983509;28;20477;-84
2024/02/01 11:58:31;;;;;;;7.73;2.70;;;;;;;;;;5005036;28;20578;-82
2024/02/01 12:01:01;;;;;;;8.40;2.73;;;;;;;;;;4989867;28;20462;-84
2024/02/01 12:03:37;;;;;;;14.63;3.47;;;;;;;;;;4980706;28;20467;-82
2024/02/01 12:06:05;;;;;;;10.80;3.40;;;;;;;;;;4984731;28;20458;-82
2024/02/01 12:08:32;;;;;;;9.73;2.87;;;;;;;;;;4989786;28;20493;-84
2024/02/01 12:11:01;;;;;;;11.97;3.53;;;;;;;;;;4988339;28;20963;-82
2024/02/01 12:13:29;;;;;;;5.90;2.60;;;;;;;;;;4981100;28;20458;-82
2024/02/01 12:15:58;;;;;;;7.03;2.57;;;;;;;;;;5005831;28;20469;-82
2024/02/01 12:18:31;;;;;;;10.97;3.87;;;;;;;;;;4977751;28;20508;-83
2024/02/01 12:21:34;;;;;;;8.03;2.90;;;;;;;;;;4979883;28;20576;-82
2024/02/01 12:24:27;;;;;;;10.20;2.63;;;;;;;;;;4891426;29;21223;-82
2024/02/01 12:26:55;;;;;;;6.80;2.23;;;;;;;;;;4930847;28;20447;-84
2024/02/01 12:29:26;;;;;;;8.03;2.40;;;;;;;;;;4949664;28;20465;-83
2024/02/01 12:31:53;;;;;;;9.90;2.60;;;;;;;;;;4955646;28;20449;-84
2024/02/01 12:34:23;;;;;;;4.40;1.90;;;;;;;;;;4954856;28;20448;-83
2024/02/01 12:36:51;;;;;;;7.40;2.73;;;;;;;;;;4955971;28;20469;-83
2024/02/01 12:39:24;;;;;;;7.40;2.43;;;;;;;;;;4919182;29;20483;-84
2024/02/01 12:41:55;;;;;;;10.93;3.20;;;;;;;;;;4918803;29;20466;-84
2024/02/01 12:44:23;;;;;;;7.33;3.17;;;;;;;;;;4927179;29;20486;-82
2024/02/01 12:46:50;;;;;;;8.00;3.27;;;;;;;;;;4927620;29;20447;-83
2024/02/01 12:49:18;;;;;;;8.20;2.53;;;;;;;;;;4915108;29;20526;-81
2024/02/01 12:51:47;;;;;;;7.83;2.60;;;;;;;;;;4914626;29;20455;-83
2024/02/01 12:54:15;;;;;;;6.90;4.13;;;;;;;;;;4923105;29;20473;-84
2024/02/01 12:56:43;;;;;;;9.60;2.47;;;;;;;;;;4923601;29;20667;-83
2024/02/01 12:59:11;;;;;;;14.07;3.73;;;;;;;;;;4909724;28;20553;-85
2024/02/01 13:01:38;;;;;;;10.43;2.70;;;;;;;;;;4985325;28;20928;-85
2024/02/01 13:04:08;;;;;;;7.07;2.47;;;;;;;;;;5011042;28;20455;-84
2024/02/01 13:06:37;;;;;;;20.33;2.73;;;;;;;;;;5009168;28;20459;-84
2024/02/01 13:09:08;;;;;;;15.27;4.07;;;;;;;;;;5001939;28;20540;-84
2024/02/01 13:11:35;;;;;;;11.30;3.13;;;;;;;;;;5013072;28;20453;-86
2024/02/01 13:14:05;;;;;;;6.30;2.50;;;;;;;;;;4993619;28;20537;-85
2024/02/01 13:16:32;;;;;;;21.80;4.07;;;;;;;;;;4993335;28;20462;-85
2024/02/01 13:18:59;;;;;;;9.63;2.37;;;;;;;;;;4993909;28;21910;-84
2024/02/01 13:21:28;;;;;;;9.77;2.37;;;;;;;;;;5007555;28;20450;-84
2024/02/01 13:23:56;;;;;;;9.90;3.03;;;;;;;;;;4981761;28;20548;-85
2024/02/01 13:26:25;;;;;;;4.70;2.50;;;;;;;;;;4987578;28;20844;-83
2024/02/01 13:28:53;;;;;;;14.70;3.50;;;;;;;;;;4993393;28;20556;-84
2024/02/01 13:31:20;;;;;;;9.30;2.33;;;;;;;;;;4994259;28;20945;-82
2024/02/01 13:33:48;;;;;;;11.10;3.43;;;;;;;;;;5002587;28;20464;-82
2024/02/01 13:36:16;;;;;;;6.73;2.60;;;;;;;;;;4996814;28;20490;-83
2024/02/01 13:38:43;;;;;;;9.50;2.40;;;;;;;;;;4983730;28;20550;-82
2024/02/01 13:41:13;;;;;;;5.87;2.00;;;;;;;;;;4980457;28;20942;-84
2024/02/01 13:43:46;;;;;;;8.67;2.33;;;;;;;;;;5006027;28;20459;-83
2024/02/01 13:46:18;;;;;;;9.70;2.40;;;;;;;;;;5003337;28;20480;-82
2024/02/01 13:48:45;;;;;;;9.20;2.50;;;;;;;;;;5003489;28;20522;-83
2024/02/01 13:51:24;;;;;;;7.03;4.33;;;;;;;;;;5016009;28;20528;-84
2024/02/01 13:53:54;;;;;;;11.03;2.97;;;;;;;;;;4996609;28;20465;-85
2024/02/01 13:56:29;;;;;;;11.33;2.80;;;;;;;;;;4997272;28;20508;-84
2024/02/01 13:59:05;;;;;;;6.60;2.67;;;;;;;;;;5008961;28;20478;-83
2024/02/01 14:01:43;;;;;;;6.20;2.60;;;;;;;;;;4988389;28;20502;-84
2024/02/01 14:04:12;;;;;;;6.57;2.70;;;;;;;;;;4993311;28;20558;-83
2024/02/01 14:06:40;;;;;;;13.87;3.27;;;;;;;;;;4991582;28;20466;-83
2024/02/01 14:09:14;;;;;;;9.13;2.60;;;;;;;;;;5002279;28;20482;-83
2024/02/01 14:11:42;;;;;;;7.10;2.80;;;;;;;;;;4980375;28;20458;-83
2024/02/01 14:14:09;;;;;;;9.07;2.20;;;;;;;;;;4992373;28;20513;-82
2024/02/01 14:16:40;;;;;;;7.20;2.60;;;;;;;;;;4993302;28;20435;-83
2024/02/01 14:19:10;;;;;;;10.90;2.77;;;;;;;;;;4987740;28;20815;-83
2024/02/01 14:21:37;;;;;;;11.30;2.60;;;;;;;;;;4992089;28;20819;-82
2024/02/01 14:24:08;;;;;;;4.00;1.93;;;;;;;;;;4996566;28;20424;-83
2024/02/01 14:26:39;;;;;;;6.20;2.27;;;;;;;;;;5008045;28;20475;-83
2024/02/01 14:29:07;;;;;;;6.67;2.17;;;;;;;;;;5000675;28;20490;-83
2024/02/01 14:31:37;;;;;;;4.80;2.27;;;;;;;;;;5011974;28;20501;-85
2024/02/01 14:34:04;;;;;;;10.93;2.30;;;;;;;;;;4990204;28;20466;-83
2024/02/01 14:36:39;;;;;;;9.70;2.63;;;;;;;;;;4980651;28;20458;-84
2024/02/01 14:42:12;;;;;;;6.90;2.43;;;;;;;;;;5000045;28;20469;-84
2024/02/01 14:44:46;;;;;;;9.87;2.73;;;;;;;;;;5015839;28;20480;-83
2024/02/01 14:47:13;;;;;;;7.47;2.40;;;;;;;;;;5011113;28;20439;-83
2024/02/01 14:49:40;;;;;;;7.10;2.03;;;;;;;;;;4989564;28;20573;-83
2024/02/01 14:52:11;;;;;;;7.57;2.70;;;;;;;;;;5017995;28;20817;-84
2024/02/01 14:54:38;;;;;;;10.60;3.40;;;;;;;;;;5015668;28;21041;-82
2024/02/01 14:57:05;;;;;;;4.63;1.80;;;;;;;;;;5023931;28;20496;-83
2024/02/01 14:59:32;;;;;;;8.77;2.93;;;;;;;;;;5015503;28;20455;-84
2024/02/01 15:01:59;;;;;;;5.03;2.20;;;;;;;;;;4986313;28;20474;-82
2024/02/01 15:04:27;;;;;;;8.07;3.03;;;;;;;;;;4995423;28;21455;-84
2024/02/01 15:06:55;;;;;;;9.27;3.10;;;;;;;;;;5019335;28;20474;-84
2024/02/01 15:09:24;;;;;;;8.03;2.83;;;;;;;;;;5009573;28;20481;-84
2024/02/01 15:11:51;;;;;;;13.87;3.10;;;;;;;;;;5008328;28;20504;-84
2024/02/01 15:14:20;;;;;;;7.70;2.80;;;;;;;;;;5007197;28;21229;-83
2024/02/01 15:16:47;;;;;;;7.57;2.90;;;;;;;;;;4993456;28;20462;-82
2024/02/01 15:19:14;;;;;;;7.87;2.43;;;;;;;;;;4983736;28;20480;-84
2024/02/01 15:21:43;;;;;;;9.40;2.63;;;;;;;;;;4990007;28;20521;-84
2024/02/01 15:24:14;;;;;;;9.33;2.90;;;;;;;;;;5008345;28;20521;-84
2024/02/01 15:26:42;;;;;;;8.70;2.50;;;;;;;;;;4983193;28;20510;-83
2024/02/01 15:29:13;;;;;;;8.00;2.20;;;;;;;;;;5010765;28;20598;-84
2024/02/01 15:31:41;;;;;;;5.90;1.93;;;;;;;;;;4984540;28;20458;-84
2024/02/01 15:34:15;;;;;;;7.40;2.17;;;;;;;;;;5009411;28;20903;-82
2024/02/01 15:36:43;;;;;;;8.13;2.23;;;;;;;;;;4978788;28;20457;-84
2024/02/01 15:39:16;;;;;;;7.60;2.57;;;;;;;;;;5009543;28;20497;-82
2024/02/01 15:41:44;;;;;;;7.93;2.53;;;;;;;;;;5008930;28;20450;-83
2024/02/01 15:44:12;;;;;;;9.10;2.93;;;;;;;;;;5009936;28;20509;-84
2024/02/01 15:46:40;;;;;;;6.93;3.20;;;;;;;;;;4992835;28;20494;-85
2024/02/01 15:49:11;;;;;;;10.20;3.37;;;;;;;;;;5004328;28;20489;-84
2024/02/01 15:51:42;;;;;;;10.23;3.67;;;;;;;;;;5007021;28;20461;-85
2024/02/01 15:54:14;;;;;;;5.80;3.20;;;;;;;;;;4993642;28;20459;-83